sensor_id;sensor_type;location;lat;lon;timestamp;P1;durP1;ratioP1;P2;durP2;ratioP2
9854;SDS011;4966;48.112;9.282;2022-09-25T00:00:43;126.93;;;7.65;;
9854;SDS011;4966;48.112;9.282;2022-09-25T00:03:09;100.95;;;6.38;;
9854;SDS011;4966;48.112;9.282;2022-09-25T00:05:40;79.72;;;6.25;;
9854;SDS011;4966;48.112;9.282;2022-09-25T00:08:07;147.10;;;6.35;;
9854;SDS011;4966;48.112;9.282;2022-09-25T00:10:34;64.78;;;5.75;;
9854;SDS011;4966;48.112;9.282;2022-09-25T00:13:04;123.13;;;6.97;;
9854;SDS011;4966;48.112;9.282;2022-09-25T00:15:30;89.32;;;6.65;;
9854;SDS011;4966;48.112;9.282;2022-09-25T00:17:55;73.60;;;7.22;;
9854;SDS011;4966;48.112;9.282;2022-09-25T00:20:20;63.10;;;5.63;;
9854;SDS011;4966;48.112;9.282;2022-09-25T00:22:48;68.20;;;7.28;;
9854;SDS011;4966;48.112;9.282;2022-09-25T00:25:14;86.03;;;6.05;;
9854;SDS011;4966;48.112;9.282;2022-09-25T00:27:40;83.70;;;6.20;;
9854;SDS011;4966;48.112;9.282;2022-09-25T00:30:07;95.00;;;6.65;;
9854;SDS011;4966;48.112;9.282;2022-09-25T00:32:34;77.82;;;5.00;;
9854;SDS011;4966;48.112;9.282;2022-09-25T00:34:59;66.65;;;4.97;;
9854;SDS011;4966;48.112;9.282;2022-09-25T00:37:24;88.25;;;6.97;;
9854;SDS011;4966;48.112;9.282;2022-09-25T00:39:52;49.10;;;5.60;;
9854;SDS011;4966;48.112;9.282;2022-09-25T00:42:19;69.82;;;5.97;;
9854;SDS011;4966;48.112;9.282;2022-09-25T00:47:27;49.65;;;4.70;;
9854;SDS011;4966;48.112;9.282;2022-09-25T00:50:04;57.50;;;4.55;;
9854;SDS011;4966;48.112;9.282;2022-09-25T00:52:43;60.63;;;4.32;;
9854;SDS011;4966;48.112;9.282;2022-09-25T00:55:09;50.10;;;4.38;;
9854;SDS011;4966;48.112;9.282;2022-09-25T00:57:36;34.40;;;4.55;;
9854;SDS011;4966;48.112;9.282;2022-09-25T01:00:06;25.20;;;4.10;;
9854;SDS011;4966;48.112;9.282;2022-09-25T01:02:45;49.33;;;5.43;;
9854;SDS011;4966;48.112;9.282;2022-09-25T01:05:18;73.82;;;4.72;;
9854;SDS011;4966;48.112;9.282;2022-09-25T01:07:47;112.28;;;4.75;;
9854;SDS011;4966;48.112;9.282;2022-09-25T01:10:14;126.75;;;6.70;;
9854;SDS011;4966;48.112;9.282;2022-09-25T01:12:42;113.50;;;4.88;;
9854;SDS011;4966;48.112;9.282;2022-09-25T01:15:12;122.13;;;5.53;;
9854;SDS011;4966;48.112;9.282;2022-09-25T01:26:14;102.70;;;5.60;;
9854;SDS011;4966;48.112;9.282;2022-09-25T01:29:02;115.10;;;6.60;;
9854;SDS011;4966;48.112;9.282;2022-09-25T01:34:49;93.35;;;5.25;;
9854;SDS011;4966;48.112;9.282;2022-09-25T01:37:04;81.22;;;5.00;;
9854;SDS011;4966;48.112;9.282;2022-09-25T01:39:40;99.78;;;5.40;;
9854;SDS011;4966;48.112;9.282;2022-09-25T01:42:25;73.00;;;4.80;;
9854;SDS011;4966;48.112;9.282;2022-09-25T01:45:03;100.90;;;6.03;;
9854;SDS011;4966;48.112;9.282;2022-09-25T01:47:33;147.50;;;5.65;;
9854;SDS011;4966;48.112;9.282;2022-09-25T01:50:06;75.22;;;4.43;;
9854;SDS011;4966;48.112;9.282;2022-09-25T01:52:39;115.78;;;5.68;;
9854;SDS011;4966;48.112;9.282;2022-09-25T01:55:11;108.90;;;5.22;;
9854;SDS011;4966;48.112;9.282;2022-09-25T01:57:43;107.38;;;5.70;;
9854;SDS011;4966;48.112;9.282;2022-09-25T02:00:17;82.20;;;4.57;;
9854;SDS011;4966;48.112;9.282;2022-09-25T02:03:20;90.60;;;5.47;;
9854;SDS011;4966;48.112;9.282;2022-09-25T02:05:47;59.13;;;4.60;;
9854;SDS011;4966;48.112;9.282;2022-09-25T02:08:17;72.07;;;4.43;;
9854;SDS011;4966;48.112;9.282;2022-09-25T02:10:47;77.72;;;4.20;;
9854;SDS011;4966;48.112;9.282;2022-09-25T02:13:16;60.75;;;3.35;;
9854;SDS011;4966;48.112;9.282;2022-09-25T02:15:49;17.88;;;2.42;;
9854;SDS011;4966;48.112;9.282;2022-09-25T02:18:17;8.98;;;2.03;;
9854;SDS011;4966;48.112;9.282;2022-09-25T02:23:51;13.88;;;2.05;;
9854;SDS011;4966;48.112;9.282;2022-09-25T02:26:23;8.27;;;2.30;;
9854;SDS011;4966;48.112;9.282;2022-09-25T02:28:51;20.52;;;4.05;;
9854;SDS011;4966;48.112;9.282;2022-09-25T02:31:17;14.50;;;2.17;;
9854;SDS011;4966;48.112;9.282;2022-09-25T02:33:45;15.88;;;2.28;;
9854;SDS011;4966;48.112;9.282;2022-09-25T02:36:15;16.75;;;2.35;;
9854;SDS011;4966;48.112;9.282;2022-09-25T02:38:43;39.38;;;3.17;;
9854;SDS011;4966;48.112;9.282;2022-09-25T02:41:17;18.25;;;2.63;;
9854;SDS011;4966;48.112;9.282;2022-09-25T02:44:06;14.30;;;2.40;;
9854;SDS011;4966;48.112;9.282;2022-09-25T02:46:43;20.05;;;2.70;;
9854;SDS011;4966;48.112;9.282;2022-09-25T02:49:25;25.48;;;3.05;;
9854;SDS011;4966;48.112;9.282;2022-09-25T02:52:08;16.38;;;2.42;;
9854;SDS011;4966;48.112;9.282;2022-09-25T02:54:43;21.08;;;2.28;;
9854;SDS011;4966;48.112;9.282;2022-09-25T02:57:46;42.92;;;2.92;;
9854;SDS011;4966;48.112;9.282;2022-09-25T03:00:04;39.95;;;2.83;;
9854;SDS011;4966;48.112;9.282;2022-09-25T03:02:31;92.55;;;3.60;;
9854;SDS011;4966;48.112;9.282;2022-09-25T03:04:59;48.67;;;3.28;;
9854;SDS011;4966;48.112;9.282;2022-09-25T03:07:26;19.40;;;2.42;;
9854;SDS011;4966;48.112;9.282;2022-09-25T03:09:51;60.20;;;3.13;;
9854;SDS011;4966;48.112;9.282;2022-09-25T03:12:21;66.43;;;3.70;;
9854;SDS011;4966;48.112;9.282;2022-09-25T03:14:46;72.78;;;3.42;;
9854;SDS011;4966;48.112;9.282;2022-09-25T03:17:12;45.58;;;2.90;;
9854;SDS011;4966;48.112;9.282;2022-09-25T03:19:38;44.50;;;2.88;;
9854;SDS011;4966;48.112;9.282;2022-09-25T03:22:04;56.78;;;2.75;;
9854;SDS011;4966;48.112;9.282;2022-09-25T03:24:29;41.17;;;2.83;;
9854;SDS011;4966;48.112;9.282;2022-09-25T03:26:55;28.27;;;2.55;;
9854;SDS011;4966;48.112;9.282;2022-09-25T03:29:20;16.13;;;2.63;;
9854;SDS011;4966;48.112;9.282;2022-09-25T03:31:46;41.72;;;2.88;;
9854;SDS011;4966;48.112;9.282;2022-09-25T03:34:12;21.65;;;2.20;;
9854;SDS011;4966;48.112;9.282;2022-09-25T03:36:39;18.48;;;2.55;;
9854;SDS011;4966;48.112;9.282;2022-09-25T03:39:05;37.05;;;2.65;;
9854;SDS011;4966;48.112;9.282;2022-09-25T03:41:32;47.63;;;2.75;;
9854;SDS011;4966;48.112;9.282;2022-09-25T03:43:59;29.67;;;2.30;;
9854;SDS011;4966;48.112;9.282;2022-09-25T03:46:25;33.85;;;2.83;;
9854;SDS011;4966;48.112;9.282;2022-09-25T03:48:52;50.92;;;3.67;;
9854;SDS011;4966;48.112;9.282;2022-09-25T03:51:18;59.70;;;3.78;;
9854;SDS011;4966;48.112;9.282;2022-09-25T03:53:45;40.03;;;3.10;;
9854;SDS011;4966;48.112;9.282;2022-09-25T03:56:13;59.75;;;2.83;;
9854;SDS011;4966;48.112;9.282;2022-09-25T03:58:41;45.58;;;2.78;;
9854;SDS011;4966;48.112;9.282;2022-09-25T04:01:07;62.42;;;3.40;;
9854;SDS011;4966;48.112;9.282;2022-09-25T04:03:35;31.70;;;2.35;;
9854;SDS011;4966;48.112;9.282;2022-09-25T04:06:01;41.63;;;2.95;;
9854;SDS011;4966;48.112;9.282;2022-09-25T04:08:31;38.55;;;3.00;;
9854;SDS011;4966;48.112;9.282;2022-09-25T04:10:58;49.53;;;2.88;;
9854;SDS011;4966;48.112;9.282;2022-09-25T04:13:31;60.40;;;2.97;;
9854;SDS011;4966;48.112;9.282;2022-09-25T04:15:59;26.85;;;2.75;;
9854;SDS011;4966;48.112;9.282;2022-09-25T04:18:25;68.22;;;3.40;;
9854;SDS011;4966;48.112;9.282;2022-09-25T04:20:55;44.72;;;2.97;;
9854;SDS011;4966;48.112;9.282;2022-09-25T04:23:32;25.25;;;2.45;;
9854;SDS011;4966;48.112;9.282;2022-09-25T04:25:58;97.95;;;3.90;;
9854;SDS011;4966;48.112;9.282;2022-09-25T04:28:24;40.28;;;2.97;;
9854;SDS011;4966;48.112;9.282;2022-09-25T04:30:50;50.33;;;3.28;;
9854;SDS011;4966;48.112;9.282;2022-09-25T04:33:16;148.38;;;6.00;;
9854;SDS011;4966;48.112;9.282;2022-09-25T04:36:01;62.63;;;4.25;;
9854;SDS011;4966;48.112;9.282;2022-09-25T04:38:27;67.38;;;3.67;;
9854;SDS011;4966;48.112;9.282;2022-09-25T04:40:55;27.83;;;3.42;;
9854;SDS011;4966;48.112;9.282;2022-09-25T04:43:21;18.38;;;2.97;;
9854;SDS011;4966;48.112;9.282;2022-09-25T04:45:46;16.15;;;2.70;;
9854;SDS011;4966;48.112;9.282;2022-09-25T04:48:12;35.70;;;3.47;;
9854;SDS011;4966;48.112;9.282;2022-09-25T04:50:37;48.95;;;3.10;;
9854;SDS011;4966;48.112;9.282;2022-09-25T04:53:03;42.85;;;2.88;;
9854;SDS011;4966;48.112;9.282;2022-09-25T04:55:28;82.05;;;3.30;;
9854;SDS011;4966;48.112;9.282;2022-09-25T04:57:54;33.92;;;2.95;;
9854;SDS011;4966;48.112;9.282;2022-09-25T05:00:25;31.38;;;2.60;;
9854;SDS011;4966;48.112;9.282;2022-09-25T05:02:55;33.83;;;3.40;;
9854;SDS011;4966;48.112;9.282;2022-09-25T05:05:22;33.08;;;2.88;;
9854;SDS011;4966;48.112;9.282;2022-09-25T05:07:54;32.53;;;2.60;;
9854;SDS011;4966;48.112;9.282;2022-09-25T05:10:22;44.58;;;2.85;;
9854;SDS011;4966;48.112;9.282;2022-09-25T05:12:54;30.27;;;3.03;;
9854;SDS011;4966;48.112;9.282;2022-09-25T05:15:21;25.70;;;2.20;;
9854;SDS011;4966;48.112;9.282;2022-09-25T05:17:46;11.60;;;2.35;;
9854;SDS011;4966;48.112;9.282;2022-09-25T05:20:12;25.75;;;3.13;;
9854;SDS011;4966;48.112;9.282;2022-09-25T05:22:37;25.55;;;2.67;;
9854;SDS011;4966;48.112;9.282;2022-09-25T05:25:03;28.73;;;2.78;;
9854;SDS011;4966;48.112;9.282;2022-09-25T05:27:31;17.40;;;2.72;;
9854;SDS011;4966;48.112;9.282;2022-09-25T05:29:58;14.13;;;2.83;;
9854;SDS011;4966;48.112;9.282;2022-09-25T05:32:23;5.35;;;2.53;;
9854;SDS011;4966;48.112;9.282;2022-09-25T05:34:49;12.88;;;2.58;;
9854;SDS011;4966;48.112;9.282;2022-09-25T05:37:14;11.98;;;3.78;;
9854;SDS011;4966;48.112;9.282;2022-09-25T05:39:39;7.57;;;3.10;;
9854;SDS011;4966;48.112;9.282;2022-09-25T05:42:05;5.25;;;2.70;;
9854;SDS011;4966;48.112;9.282;2022-09-25T05:44:30;7.35;;;2.47;;
9854;SDS011;4966;48.112;9.282;2022-09-25T05:46:56;4.10;;;2.20;;
9854;SDS011;4966;48.112;9.282;2022-09-25T05:49:22;5.65;;;2.50;;
9854;SDS011;4966;48.112;9.282;2022-09-25T05:51:47;3.90;;;2.20;;
9854;SDS011;4966;48.112;9.282;2022-09-25T05:54:13;5.97;;;2.88;;
9854;SDS011;4966;48.112;9.282;2022-09-25T05:56:38;4.63;;;3.03;;
9854;SDS011;4966;48.112;9.282;2022-09-25T05:59:03;6.05;;;3.35;;
9854;SDS011;4966;48.112;9.282;2022-09-25T06:01:29;6.30;;;3.67;;
9854;SDS011;4966;48.112;9.282;2022-09-25T06:03:54;5.75;;;3.10;;
9854;SDS011;4966;48.112;9.282;2022-09-25T06:06:19;8.15;;;3.72;;
9854;SDS011;4966;48.112;9.282;2022-09-25T06:08:45;13.02;;;3.60;;
9854;SDS011;4966;48.112;9.282;2022-09-25T06:11:10;8.98;;;3.65;;
9854;SDS011;4966;48.112;9.282;2022-09-25T06:13:36;12.25;;;4.80;;
9854;SDS011;4966;48.112;9.282;2022-09-25T06:16:02;5.72;;;3.28;;
9854;SDS011;4966;48.112;9.282;2022-09-25T06:18:29;6.85;;;3.55;;
9854;SDS011;4966;48.112;9.282;2022-09-25T06:21:02;6.07;;;3.20;;
9854;SDS011;4966;48.112;9.282;2022-09-25T06:23:29;5.35;;;3.00;;
9854;SDS011;4966;48.112;9.282;2022-09-25T06:25:58;7.28;;;4.38;;
9854;SDS011;4966;48.112;9.282;2022-09-25T06:28:25;5.70;;;3.70;;
9854;SDS011;4966;48.112;9.282;2022-09-25T06:30:50;5.18;;;3.22;;
9854;SDS011;4966;48.112;9.282;2022-09-25T06:33:15;6.28;;;4.13;;
9854;SDS011;4966;48.112;9.282;2022-09-25T06:35:41;5.82;;;3.42;;
9854;SDS011;4966;48.112;9.282;2022-09-25T06:38:08;5.68;;;3.03;;
9854;SDS011;4966;48.112;9.282;2022-09-25T06:40:34;4.85;;;2.70;;
9854;SDS011;4966;48.112;9.282;2022-09-25T06:43:02;12.43;;;3.72;;
9854;SDS011;4966;48.112;9.282;2022-09-25T06:45:30;6.70;;;2.80;;
9854;SDS011;4966;48.112;9.282;2022-09-25T06:48:04;6.32;;;3.00;;
9854;SDS011;4966;48.112;9.282;2022-09-25T06:50:50;5.78;;;2.85;;
9854;SDS011;4966;48.112;9.282;2022-09-25T06:53:17;5.18;;;2.30;;
9854;SDS011;4966;48.112;9.282;2022-09-25T06:55:44;4.40;;;2.58;;
9854;SDS011;4966;48.112;9.282;2022-09-25T06:58:11;4.45;;;2.40;;
9854;SDS011;4966;48.112;9.282;2022-09-25T07:00:38;3.60;;;2.38;;
9854;SDS011;4966;48.112;9.282;2022-09-25T07:03:03;4.40;;;2.83;;
9854;SDS011;4966;48.112;9.282;2022-09-25T07:05:47;3.22;;;2.20;;
9854;SDS011;4966;48.112;9.282;2022-09-25T07:08:13;3.08;;;2.15;;
9854;SDS011;4966;48.112;9.282;2022-09-25T07:10:46;5.25;;;3.30;;
9854;SDS011;4966;48.112;9.282;2022-09-25T07:13:15;6.50;;;4.03;;
9854;SDS011;4966;48.112;9.282;2022-09-25T07:15:42;4.03;;;2.47;;
9854;SDS011;4966;48.112;9.282;2022-09-25T07:18:08;5.72;;;2.47;;
9854;SDS011;4966;48.112;9.282;2022-09-25T07:20:33;4.78;;;2.80;;
9854;SDS011;4966;48.112;9.282;2022-09-25T07:22:59;5.10;;;2.35;;
9854;SDS011;4966;48.112;9.282;2022-09-25T07:25:27;3.70;;;2.53;;
9854;SDS011;4966;48.112;9.282;2022-09-25T07:27:55;3.95;;;2.28;;
9854;SDS011;4966;48.112;9.282;2022-09-25T07:30:20;5.10;;;2.65;;
9854;SDS011;4966;48.112;9.282;2022-09-25T07:32:45;3.72;;;1.90;;
9854;SDS011;4966;48.112;9.282;2022-09-25T07:35:11;3.55;;;2.20;;
9854;SDS011;4966;48.112;9.282;2022-09-25T07:37:36;3.53;;;2.53;;
9854;SDS011;4966;48.112;9.282;2022-09-25T07:40:01;4.35;;;2.30;;
9854;SDS011;4966;48.112;9.282;2022-09-25T07:42:27;3.28;;;2.20;;
9854;SDS011;4966;48.112;9.282;2022-09-25T07:44:52;3.60;;;1.90;;
9854;SDS011;4966;48.112;9.282;2022-09-25T07:47:18;3.58;;;2.13;;
9854;SDS011;4966;48.112;9.282;2022-09-25T07:49:43;3.60;;;2.50;;
9854;SDS011;4966;48.112;9.282;2022-09-25T07:52:09;4.90;;;2.58;;
9854;SDS011;4966;48.112;9.282;2022-09-25T07:54:34;4.55;;;2.70;;
9854;SDS011;4966;48.112;9.282;2022-09-25T07:57:01;3.22;;;1.95;;
9854;SDS011;4966;48.112;9.282;2022-09-25T07:59:27;2.85;;;2.05;;
9854;SDS011;4966;48.112;9.282;2022-09-25T08:01:52;5.32;;;3.00;;
9854;SDS011;4966;48.112;9.282;2022-09-25T08:04:18;3.25;;;2.10;;
9854;SDS011;4966;48.112;9.282;2022-09-25T08:06:43;3.78;;;2.10;;
9854;SDS011;4966;48.112;9.282;2022-09-25T08:09:09;4.20;;;2.33;;
9854;SDS011;4966;48.112;9.282;2022-09-25T08:11:36;3.03;;;2.10;;
9854;SDS011;4966;48.112;9.282;2022-09-25T08:14:01;4.57;;;2.55;;
9854;SDS011;4966;48.112;9.282;2022-09-25T08:16:27;4.07;;;2.83;;
9854;SDS011;4966;48.112;9.282;2022-09-25T08:18:52;4.93;;;2.70;;
9854;SDS011;4966;48.112;9.282;2022-09-25T08:21:18;4.10;;;2.42;;
9854;SDS011;4966;48.112;9.282;2022-09-25T08:23:49;6.05;;;2.38;;
9854;SDS011;4966;48.112;9.282;2022-09-25T08:26:16;4.28;;;2.58;;
9854;SDS011;4966;48.112;9.282;2022-09-25T08:28:43;4.57;;;2.67;;
9854;SDS011;4966;48.112;9.282;2022-09-25T08:31:09;6.57;;;3.00;;
9854;SDS011;4966;48.112;9.282;2022-09-25T08:33:34;4.63;;;2.53;;
9854;SDS011;4966;48.112;9.282;2022-09-25T08:36:02;5.82;;;3.90;;
9854;SDS011;4966;48.112;9.282;2022-09-25T08:38:31;4.45;;;2.40;;
9854;SDS011;4966;48.112;9.282;2022-09-25T08:41:08;4.10;;;2.30;;
9854;SDS011;4966;48.112;9.282;2022-09-25T08:43:42;5.38;;;2.40;;
9854;SDS011;4966;48.112;9.282;2022-09-25T08:49:19;5.93;;;3.25;;
9854;SDS011;4966;48.112;9.282;2022-09-25T08:51:49;4.30;;;3.03;;
9854;SDS011;4966;48.112;9.282;2022-09-25T08:54:18;4.55;;;2.55;;
9854;SDS011;4966;48.112;9.282;2022-09-25T08:56:48;4.75;;;2.90;;
9854;SDS011;4966;48.112;9.282;2022-09-25T09:02:16;5.03;;;2.83;;
9854;SDS011;4966;48.112;9.282;2022-09-25T09:04:48;5.22;;;2.85;;
9854;SDS011;4966;48.112;9.282;2022-09-25T09:07:21;5.65;;;3.00;;
9854;SDS011;4966;48.112;9.282;2022-09-25T09:09:53;5.20;;;2.85;;
9854;SDS011;4966;48.112;9.282;2022-09-25T09:12:42;5.72;;;2.67;;
9854;SDS011;4966;48.112;9.282;2022-09-25T09:15:16;4.60;;;2.58;;
9854;SDS011;4966;48.112;9.282;2022-09-25T09:17:51;4.35;;;2.90;;
9854;SDS011;4966;48.112;9.282;2022-09-25T09:20:20;6.03;;;2.92;;
9854;SDS011;4966;48.112;9.282;2022-09-25T09:22:52;4.53;;;2.58;;
9854;SDS011;4966;48.112;9.282;2022-09-25T09:25:39;5.32;;;2.50;;
9854;SDS011;4966;48.112;9.282;2022-09-25T09:28:45;4.07;;;2.85;;
9854;SDS011;4966;48.112;9.282;2022-09-25T09:31:36;5.78;;;2.80;;
9854;SDS011;4966;48.112;9.282;2022-09-25T09:42:54;2.80;;;1.55;;
9854;SDS011;4966;48.112;9.282;2022-09-25T09:51:01;4.75;;;1.77;;
9854;SDS011;4966;48.112;9.282;2022-09-25T09:53:38;2.80;;;1.45;;
9854;SDS011;4966;48.112;9.282;2022-09-25T09:56:11;3.30;;;1.75;;
9854;SDS011;4966;48.112;9.282;2022-09-25T09:58:44;4.15;;;1.83;;
9854;SDS011;4966;48.112;9.282;2022-09-25T10:01:14;3.00;;;1.70;;
9854;SDS011;4966;48.112;9.282;2022-09-25T10:03:43;2.67;;;1.40;;
9854;SDS011;4966;48.112;9.282;2022-09-25T10:06:12;3.40;;;1.80;;
9854;SDS011;4966;48.112;9.282;2022-09-25T10:08:39;4.88;;;1.63;;
9854;SDS011;4966;48.112;9.282;2022-09-25T10:11:16;7.18;;;1.90;;
9854;SDS011;4966;48.112;9.282;2022-09-25T10:13:43;2.72;;;1.50;;
9854;SDS011;4966;48.112;9.282;2022-09-25T10:16:10;3.17;;;1.60;;
9854;SDS011;4966;48.112;9.282;2022-09-25T10:18:41;3.25;;;1.73;;
9854;SDS011;4966;48.112;9.282;2022-09-25T10:21:23;4.63;;;1.55;;
9854;SDS011;4966;48.112;9.282;2022-09-25T10:23:53;3.25;;;1.95;;
9854;SDS011;4966;48.112;9.282;2022-09-25T10:26:29;4.10;;;1.80;;
9854;SDS011;4966;48.112;9.282;2022-09-25T10:28:56;2.65;;;1.80;;
9854;SDS011;4966;48.112;9.282;2022-09-25T10:31:41;3.08;;;1.42;;
9854;SDS011;4966;48.112;9.282;2022-09-25T10:36:41;2.50;;;1.60;;
9854;SDS011;4966;48.112;9.282;2022-09-25T10:41:54;3.33;;;1.60;;
9854;SDS011;4966;48.112;9.282;2022-09-25T10:50:20;3.03;;;1.95;;
9854;SDS011;4966;48.112;9.282;2022-09-25T10:52:51;3.20;;;1.70;;
9854;SDS011;4966;48.112;9.282;2022-09-25T10:55:40;3.45;;;1.70;;
9854;SDS011;4966;48.112;9.282;2022-09-25T11:03:17;2.97;;;1.80;;
9854;SDS011;4966;48.112;9.282;2022-09-25T11:05:56;3.42;;;1.70;;
9854;SDS011;4966;48.112;9.282;2022-09-25T11:08:34;3.63;;;1.40;;
9854;SDS011;4966;48.112;9.282;2022-09-25T11:11:05;2.90;;;1.50;;
9854;SDS011;4966;48.112;9.282;2022-09-25T11:13:42;3.53;;;1.42;;
9854;SDS011;4966;48.112;9.282;2022-09-25T11:16:10;2.30;;;1.40;;
9854;SDS011;4966;48.112;9.282;2022-09-25T11:18:41;2.75;;;1.58;;
9854;SDS011;4966;48.112;9.282;2022-09-25T11:26:46;2.85;;;1.50;;
9854;SDS011;4966;48.112;9.282;2022-09-25T11:32:20;1.80;;;1.08;;
9854;SDS011;4966;48.112;9.282;2022-09-25T11:37:45;2.20;;;1.20;;
9854;SDS011;4966;48.112;9.282;2022-09-25T11:40:29;2.03;;;1.20;;
9854;SDS011;4966;48.112;9.282;2022-09-25T11:49:27;1.80;;;1.20;;
9854;SDS011;4966;48.112;9.282;2022-09-25T12:03:04;2.53;;;1.52;;
9854;SDS011;4966;48.112;9.282;2022-09-25T12:11:32;3.08;;;1.92;;
9854;SDS011;4966;48.112;9.282;2022-09-25T12:22:25;3.13;;;1.23;;
9854;SDS011;4966;48.112;9.282;2022-09-25T12:30:42;1.80;;;1.10;;
9854;SDS011;4966;48.112;9.282;2022-09-25T12:33:30;2.38;;;1.30;;
9854;SDS011;4966;48.112;9.282;2022-09-25T12:36:08;2.20;;;1.23;;
9854;SDS011;4966;48.112;9.282;2022-09-25T12:38:49;1.92;;;1.23;;
9854;SDS011;4966;48.112;9.282;2022-09-25T12:46:31;3.72;;;1.10;;
9854;SDS011;4966;48.112;9.282;2022-09-25T12:49:12;2.08;;;1.30;;
9854;SDS011;4966;48.112;9.282;2022-09-25T12:51:39;2.42;;;1.40;;
9854;SDS011;4966;48.112;9.282;2022-09-25T13:05:16;3.22;;;1.60;;
9854;SDS011;4966;48.112;9.282;2022-09-25T13:10:37;4.90;;;1.73;;
9854;SDS011;4966;48.112;9.282;2022-09-25T13:13:04;2.78;;;1.75;;
9854;SDS011;4966;48.112;9.282;2022-09-25T13:15:35;3.85;;;2.00;;
9854;SDS011;4966;48.112;9.282;2022-09-25T13:23:04;5.10;;;2.40;;
9854;SDS011;4966;48.112;9.282;2022-09-25T13:26:07;4.15;;;2.58;;
9854;SDS011;4966;48.112;9.282;2022-09-25T13:28:35;7.65;;;2.20;;
9854;SDS011;4966;48.112;9.282;2022-09-25T13:31:19;3.78;;;2.13;;
9854;SDS011;4966;48.112;9.282;2022-09-25T13:36:30;6.50;;;1.95;;
9854;SDS011;4966;48.112;9.282;2022-09-25T13:39:44;5.32;;;2.47;;
9854;SDS011;4966;48.112;9.282;2022-09-25T13:42:40;3.85;;;2.40;;
9854;SDS011;4966;48.112;9.282;2022-09-25T13:48:00;7.43;;;2.30;;
9854;SDS011;4966;48.112;9.282;2022-09-25T13:50:36;3.25;;;2.47;;
9854;SDS011;4966;48.112;9.282;2022-09-25T13:58:19;5.53;;;2.30;;
9854;SDS011;4966;48.112;9.282;2022-09-25T14:03:36;3.60;;;2.03;;
9854;SDS011;4966;48.112;9.282;2022-09-25T14:06:23;6.65;;;2.10;;
9854;SDS011;4966;48.112;9.282;2022-09-25T14:08:53;4.13;;;2.10;;
9854;SDS011;4966;48.112;9.282;2022-09-25T14:11:26;5.43;;;2.30;;
9854;SDS011;4966;48.112;9.282;2022-09-25T14:13:58;3.25;;;1.83;;
9854;SDS011;4966;48.112;9.282;2022-09-25T14:16:29;3.45;;;2.17;;
9854;SDS011;4966;48.112;9.282;2022-09-25T14:18:58;4.43;;;2.22;;
9854;SDS011;4966;48.112;9.282;2022-09-25T14:21:28;4.78;;;2.38;;
9854;SDS011;4966;48.112;9.282;2022-09-25T14:23:56;6.18;;;2.33;;
9854;SDS011;4966;48.112;9.282;2022-09-25T14:26:36;3.45;;;2.25;;
9854;SDS011;4966;48.112;9.282;2022-09-25T14:29:16;4.82;;;2.67;;
9854;SDS011;4966;48.112;9.282;2022-09-25T14:43:01;5.72;;;2.50;;
9854;SDS011;4966;48.112;9.282;2022-09-25T14:46:01;4.70;;;2.60;;
9854;SDS011;4966;48.112;9.282;2022-09-25T14:48:37;3.95;;;2.40;;
9854;SDS011;4966;48.112;9.282;2022-09-25T14:51:09;5.90;;;2.42;;
9854;SDS011;4966;48.112;9.282;2022-09-25T14:53:40;4.32;;;2.58;;
9854;SDS011;4966;48.112;9.282;2022-09-25T14:56:10;4.95;;;2.58;;
9854;SDS011;4966;48.112;9.282;2022-09-25T14:58:43;4.07;;;2.60;;
9854;SDS011;4966;48.112;9.282;2022-09-25T15:01:31;4.07;;;2.00;;
9854;SDS011;4966;48.112;9.282;2022-09-25T15:03:58;5.97;;;2.22;;
9854;SDS011;4966;48.112;9.282;2022-09-25T15:06:28;4.80;;;2.55;;
9854;SDS011;4966;48.112;9.282;2022-09-25T15:08:58;4.25;;;2.00;;
9854;SDS011;4966;48.112;9.282;2022-09-25T15:11:26;6.85;;;2.70;;
9854;SDS011;4966;48.112;9.282;2022-09-25T15:14:10;3.88;;;2.20;;
9854;SDS011;4966;48.112;9.282;2022-09-25T15:16:40;4.13;;;2.38;;
9854;SDS011;4966;48.112;9.282;2022-09-25T15:19:27;3.38;;;2.13;;
9854;SDS011;4966;48.112;9.282;2022-09-25T15:22:10;4.25;;;2.40;;
9854;SDS011;4966;48.112;9.282;2022-09-25T15:24:45;3.92;;;1.98;;
9854;SDS011;4966;48.112;9.282;2022-09-25T15:27:14;4.97;;;2.60;;
9854;SDS011;4966;48.112;9.282;2022-09-25T15:29:41;3.67;;;2.50;;
9854;SDS011;4966;48.112;9.282;2022-09-25T15:32:16;4.30;;;2.55;;
9854;SDS011;4966;48.112;9.282;2022-09-25T15:39:41;5.22;;;2.72;;
9854;SDS011;4966;48.112;9.282;2022-09-25T15:42:10;6.90;;;3.10;;
9854;SDS011;4966;48.112;9.282;2022-09-25T15:44:37;5.60;;;3.05;;
9854;SDS011;4966;48.112;9.282;2022-09-25T15:47:02;5.65;;;3.35;;
9854;SDS011;4966;48.112;9.282;2022-09-25T15:49:37;4.70;;;3.03;;
9854;SDS011;4966;48.112;9.282;2022-09-25T15:52:17;5.28;;;2.97;;
9854;SDS011;4966;48.112;9.282;2022-09-25T15:54:48;6.60;;;3.20;;
9854;SDS011;4966;48.112;9.282;2022-09-25T15:57:15;5.22;;;2.92;;
9854;SDS011;4966;48.112;9.282;2022-09-25T15:59:48;4.47;;;2.72;;
9854;SDS011;4966;48.112;9.282;2022-09-25T16:02:35;5.13;;;2.83;;
9854;SDS011;4966;48.112;9.282;2022-09-25T16:05:34;6.35;;;3.10;;
9854;SDS011;4966;48.112;9.282;2022-09-25T16:10:47;5.00;;;2.75;;
9854;SDS011;4966;48.112;9.282;2022-09-25T16:13:20;4.72;;;2.83;;
9854;SDS011;4966;48.112;9.282;2022-09-25T16:15:52;6.22;;;3.30;;
9854;SDS011;4966;48.112;9.282;2022-09-25T16:20:45;6.13;;;3.00;;
9854;SDS011;4966;48.112;9.282;2022-09-25T16:26:29;4.95;;;2.80;;
9854;SDS011;4966;48.112;9.282;2022-09-25T16:29:03;5.18;;;2.90;;
9854;SDS011;4966;48.112;9.282;2022-09-25T16:31:32;6.50;;;3.05;;
9854;SDS011;4966;48.112;9.282;2022-09-25T16:34:00;6.45;;;3.10;;
9854;SDS011;4966;48.112;9.282;2022-09-25T16:36:26;7.43;;;2.90;;
9854;SDS011;4966;48.112;9.282;2022-09-25T16:39:02;4.68;;;2.88;;
9854;SDS011;4966;48.112;9.282;2022-09-25T16:41:28;7.72;;;3.47;;
9854;SDS011;4966;48.112;9.282;2022-09-25T16:44:05;7.97;;;3.70;;
9854;SDS011;4966;48.112;9.282;2022-09-25T16:46:38;8.55;;;3.72;;
9854;SDS011;4966;48.112;9.282;2022-09-25T16:49:05;8.27;;;4.10;;
9854;SDS011;4966;48.112;9.282;2022-09-25T16:51:31;6.88;;;3.97;;
9854;SDS011;4966;48.112;9.282;2022-09-25T16:53:58;5.97;;;3.40;;
9854;SDS011;4966;48.112;9.282;2022-09-25T16:56:27;8.07;;;4.07;;
9854;SDS011;4966;48.112;9.282;2022-09-25T16:58:54;6.13;;;3.20;;
9854;SDS011;4966;48.112;9.282;2022-09-25T17:01:20;4.72;;;2.90;;
9854;SDS011;4966;48.112;9.282;2022-09-25T17:03:49;7.90;;;3.30;;
9854;SDS011;4966;48.112;9.282;2022-09-25T17:08:40;5.35;;;3.50;;
9854;SDS011;4966;48.112;9.282;2022-09-25T17:11:06;5.85;;;3.53;;
9854;SDS011;4966;48.112;9.282;2022-09-25T17:13:32;5.57;;;3.50;;
9854;SDS011;4966;48.112;9.282;2022-09-25T17:15:58;8.25;;;3.67;;
9854;SDS011;4966;48.112;9.282;2022-09-25T17:18:23;7.45;;;4.25;;
9854;SDS011;4966;48.112;9.282;2022-09-25T17:20:50;5.65;;;3.42;;
9854;SDS011;4966;48.112;9.282;2022-09-25T17:23:20;6.95;;;3.65;;
9854;SDS011;4966;48.112;9.282;2022-09-25T17:25:48;7.35;;;3.60;;
9854;SDS011;4966;48.112;9.282;2022-09-25T17:28:16;6.38;;;3.33;;
9854;SDS011;4966;48.112;9.282;2022-09-25T17:30:42;6.90;;;4.03;;
9854;SDS011;4966;48.112;9.282;2022-09-25T17:33:11;6.70;;;3.90;;
9854;SDS011;4966;48.112;9.282;2022-09-25T17:38:14;7.93;;;3.95;;
9854;SDS011;4966;48.112;9.282;2022-09-25T17:40:44;7.28;;;4.03;;
9854;SDS011;4966;48.112;9.282;2022-09-25T17:43:12;8.05;;;4.40;;
9854;SDS011;4966;48.112;9.282;2022-09-25T17:45:42;6.95;;;3.90;;
9854;SDS011;4966;48.112;9.282;2022-09-25T17:48:08;7.97;;;4.30;;
9854;SDS011;4966;48.112;9.282;2022-09-25T17:50:35;8.23;;;3.95;;
9854;SDS011;4966;48.112;9.282;2022-09-25T17:53:01;7.35;;;4.05;;
9854;SDS011;4966;48.112;9.282;2022-09-25T17:55:28;6.25;;;3.70;;
9854;SDS011;4966;48.112;9.282;2022-09-25T17:57:55;7.35;;;3.83;;
9854;SDS011;4966;48.112;9.282;2022-09-25T18:00:21;7.57;;;3.78;;
9854;SDS011;4966;48.112;9.282;2022-09-25T18:02:46;6.75;;;3.95;;
9854;SDS011;4966;48.112;9.282;2022-09-25T18:05:15;6.60;;;3.60;;
9854;SDS011;4966;48.112;9.282;2022-09-25T18:07:42;8.02;;;3.65;;
9854;SDS011;4966;48.112;9.282;2022-09-25T18:10:08;6.40;;;3.83;;
9854;SDS011;4966;48.112;9.282;2022-09-25T18:12:35;7.22;;;4.22;;
9854;SDS011;4966;48.112;9.282;2022-09-25T18:15:00;7.07;;;4.13;;
9854;SDS011;4966;48.112;9.282;2022-09-25T18:17:26;8.13;;;4.25;;
9854;SDS011;4966;48.112;9.282;2022-09-25T18:19:52;9.82;;;4.50;;